Time;durP1;ratioP1;P1;durP2;ratioP2;P2;SDS_P1;SDS_P2;PMS_P1;PMS_P2;Temp;Humidity;BMP_temperature;BMP_pressure;BME280_temperature;BME280_humidity;BME280_pressure;Samples;Min_cycle;Max_cycle;Signal;HPM_P1;HPM_P2
2022/08/01 00:01:28;;;;;;;10.70;8.85;;;19.20;99.90;;;;;;5054251;28;20083;-44
2022/08/01 00:03:56;;;;;;;15.18;9.63;;;19.20;99.90;;;;;;5066709;28;20076;-45
2022/08/01 00:06:23;;;;;;;13.55;10.25;;;19.20;99.90;;;;;;5061649;28;20071;-45
2022/08/01 00:08:49;;;;;;;12.00;10.00;;;19.20;99.90;;;;;;5065468;28;20063;-45
2022/08/01 00:11:16;;;;;;;13.25;10.32;;;19.20;99.90;;;;;;5070061;28;20127;-45
2022/08/01 00:13:43;;;;;;;16.70;10.15;;;19.20;99.90;;;;;;5065701;28;20498;-45
2022/08/01 00:16:10;;;;;;;12.75;7.60;;;19.20;99.90;;;;;;5057925;28;20149;-45
2022/08/01 00:18:36;;;;;;;12.68;8.40;;;19.20;99.90;;;;;;5064422;28;20445;-45
2022/08/01 00:21:05;;;;;;;14.23;9.30;;;19.20;99.90;;;;;;5067803;28;20059;-45
2022/08/01 00:23:32;;;;;;;11.10;7.22;;;19.20;99.90;;;;;;5057027;28;20068;-45
2022/08/01 00:25:58;;;;;;;11.95;8.40;;;19.10;99.90;;;;;;5049568;28;20120;-45
2022/08/01 00:28:25;;;;;;;9.88;6.57;;;19.10;99.90;;;;;;5061828;28;20384;-46
2022/08/01 00:30:52;;;;;;;11.70;6.50;;;19.10;99.90;;;;;;5060290;28;20548;-47
2022/08/01 00:33:18;;;;;;;8.35;6.82;;;19.10;99.90;;;;;;5072775;28;20131;-46
2022/08/01 00:35:45;;;;;;;10.60;7.32;;;19.10;99.90;;;;;;5072736;28;20048;-46
2022/08/01 00:38:13;;;;;;;8.50;6.60;;;19.10;99.90;;;;;;5055719;28;20120;-46
2022/08/01 00:40:40;;;;;;;8.60;6.85;;;19.10;99.90;;;;;;5032558;28;20132;-46
2022/08/01 00:43:07;;;;;;;7.85;5.07;;;19.10;99.90;;;;;;5045726;28;20076;-45
2022/08/01 00:45:33;;;;;;;10.40;6.75;;;19.10;99.90;;;;;;5074646;28;20076;-46
2022/08/01 00:48:00;;;;;;;8.73;5.93;;;19.10;99.90;;;;;;5073964;28;20044;-46
2022/08/01 00:50:27;;;;;;;8.02;6.38;;;19.10;99.90;;;;;;5057728;28;20084;-46
2022/08/01 00:52:57;;;;;;;7.07;5.75;;;19.10;99.90;;;;;;5075691;28;20174;-45
2022/08/01 00:55:25;;;;;;;7.25;4.90;;;19.10;99.90;;;;;;5059993;28;20119;-46
2022/08/01 00:57:52;;;;;;;6.10;5.43;;;19.10;99.90;;;;;;5057345;28;20072;-45
2022/08/01 01:00:19;;;;;;;8.32;5.72;;;19.10;99.90;;;;;;5074342;28;20051;-45
2022/08/01 01:02:45;;;;;;;6.28;4.72;;;19.00;99.90;;;;;;5069808;28;20139;-45
2022/08/01 01:05:12;;;;;;;6.25;5.00;;;19.10;99.90;;;;;;5074370;28;20532;-43
2022/08/01 01:07:42;;;;;;;9.45;4.70;;;19.10;99.90;;;;;;5073358;28;20123;-44
2022/08/01 01:10:12;;;;;;;7.38;4.90;;;19.10;99.90;;;;;;5056305;28;20396;-44
2022/08/01 01:12:45;;;;;;;7.25;4.28;;;19.00;99.90;;;;;;5059883;28;20484;-44
2022/08/01 01:15:14;;;;;;;7.20;5.32;;;19.00;99.90;;;;;;5066432;28;20080;-44
2022/08/01 01:17:42;;;;;;;5.43;4.50;;;18.90;99.90;;;;;;5065129;28;20124;-44
2022/08/01 01:20:12;;;;;;;7.25;4.72;;;19.00;99.90;;;;;;5055015;28;20081;-44
2022/08/01 01:22:55;;;;;;;5.93;5.32;;;19.00;99.90;;;;;;5055986;28;20127;-44
2022/08/01 01:25:37;;;;;;;8.20;5.45;;;19.00;99.90;;;;;;5068778;28;20047;-44
2022/08/01 01:28:08;;;;;;;7.53;5.32;;;19.00;99.90;;;;;;5059943;28;20037;-44
2022/08/01 01:30:37;;;;;;;7.43;5.82;;;19.00;99.90;;;;;;5059901;28;20061;-44
2022/08/01 01:33:04;;;;;;;7.80;5.38;;;19.00;99.90;;;;;;5054379;28;20435;-44
2022/08/01 01:35:35;;;;;;;7.85;5.45;;;18.90;99.90;;;;;;5060330;28;20090;-44
2022/08/01 01:38:05;;;;;;;10.00;5.80;;;18.90;99.90;;;;;;5059610;28;20115;-44
2022/08/01 01:40:31;;;;;;;8.30;6.07;;;18.90;99.90;;;;;;5070438;28;20090;-45
2022/08/01 01:42:58;;;;;;;8.98;5.80;;;18.90;99.90;;;;;;5056878;28;20072;-45
2022/08/01 01:45:25;;;;;;;6.53;5.70;;;18.90;99.90;;;;;;5074666;28;20083;-45
2022/08/01 01:47:53;;;;;;;5.60;4.50;;;19.00;99.90;;;;;;5070538;28;20119;-45
2022/08/01 01:50:21;;;;;;;6.70;4.60;;;19.00;99.90;;;;;;5070900;28;20544;-45
2022/08/01 01:52:47;;;;;;;10.48;3.78;;;19.00;99.90;;;;;;5073556;28;20060;-46
2022/08/01 01:55:14;;;;;;;5.22;4.20;;;18.90;99.90;;;;;;5071810;28;20048;-46
2022/08/01 01:57:42;;;;;;;6.68;3.45;;;19.00;99.90;;;;;;5068592;28;20094;-47
2022/08/01 02:00:10;;;;;;;5.63;3.30;;;18.90;99.90;;;;;;5060030;28;20134;-46
2022/08/01 02:02:37;;;;;;;4.22;2.90;;;19.00;99.90;;;;;;5047278;28;20050;-46
2022/08/01 02:05:05;;;;;;;4.30;2.42;;;18.90;99.90;;;;;;5057442;28;20121;-45
2022/08/01 02:07:32;;;;;;;3.97;2.92;;;18.90;99.90;;;;;;5067417;28;20049;-45
2022/08/01 02:09:59;;;;;;;3.55;2.72;;;19.00;99.90;;;;;;5066077;28;20119;-45
2022/08/01 02:12:26;;;;;;;3.42;3.00;;;19.00;99.90;;;;;;5054829;28;20135;-45
2022/08/01 02:14:53;;;;;;;6.00;2.90;;;18.90;99.90;;;;;;5063835;28;20040;-46
2022/08/01 02:17:20;;;;;;;4.65;2.60;;;19.00;99.90;;;;;;5067857;28;20131;-45
2022/08/01 02:19:47;;;;;;;3.88;3.40;;;18.90;99.90;;;;;;5053666;28;20551;-45
2022/08/01 02:22:20;;;;;;;3.20;2.72;;;19.00;99.90;;;;;;5069346;28;20093;-45
2022/08/01 02:24:50;;;;;;;3.72;2.72;;;19.00;99.90;;;;;;5075030;28;20048;-45
2022/08/01 02:27:18;;;;;;;5.82;2.75;;;18.90;99.90;;;;;;5064304;28;20044;-44
2022/08/01 02:29:47;;;;;;;4.85;2.80;;;18.90;99.90;;;;;;5072986;28;20530;-44
2022/08/01 02:32:17;;;;;;;3.92;2.90;;;18.90;99.90;;;;;;5066347;28;20131;-44
2022/08/01 02:34:44;;;;;;;3.45;2.88;;;18.90;99.90;;;;;;5054440;28;20184;-45
2022/08/01 02:37:11;;;;;;;3.17;2.78;;;18.90;99.90;;;;;;5072279;28;20123;-44
2022/08/01 02:39:39;;;;;;;7.18;3.20;;;18.90;99.90;;;;;;5071239;28;20373;-45
2022/08/01 02:42:07;;;;;;;7.40;3.00;;;18.90;99.90;;;;;;5058415;28;20482;-45
2022/08/01 02:44:36;;;;;;;7.05;3.33;;;18.90;99.90;;;;;;5074383;28;20049;-45
2022/08/01 02:47:03;;;;;;;5.20;3.22;;;18.90;99.90;;;;;;5071210;28;20090;-45
2022/08/01 02:49:32;;;;;;;6.03;3.50;;;18.90;99.90;;;;;;5055162;28;20059;-45
2022/08/01 02:51:59;;;;;;;5.82;3.20;;;18.90;99.90;;;;;;5073161;28;20542;-45
2022/08/01 02:54:26;;;;;;;6.32;3.20;;;18.90;99.90;;;;;;5073161;28;20051;-45
2022/08/01 02:56:54;;;;;;;8.93;3.63;;;18.80;99.90;;;;;;5072207;28;20079;-45
2022/08/01 02:59:24;;;;;;;8.45;2.78;;;18.80;99.90;;;;;;5054957;28;20047;-45
2022/08/01 03:01:51;;;;;;;5.50;2.25;;;18.70;99.90;;;;;;5055071;28;20056;-45
2022/08/01 03:04:18;;;;;;;8.52;2.45;;;18.60;99.90;;;;;;5068875;28;20136;-45
2022/08/01 03:06:45;;;;;;;4.68;2.42;;;18.60;99.90;;;;;;5055721;28;20048;-45
2022/08/01 03:09:11;;;;;;;5.82;2.28;;;18.60;99.90;;;;;;5069843;28;20128;-45
2022/08/01 03:11:38;;;;;;;4.80;2.10;;;18.60;99.90;;;;;;5066031;28;20476;-45
2022/08/01 03:14:06;;;;;;;4.13;1.98;;;18.60;99.90;;;;;;5072714;28;20127;-44
2022/08/01 03:16:33;;;;;;;6.38;2.25;;;18.60;99.90;;;;;;5057108;28;20056;-44
2022/08/01 03:19:00;;;;;;;4.57;1.83;;;18.50;99.90;;;;;;5066319;28;20560;-44
2022/08/01 03:21:27;;;;;;;7.28;1.70;;;18.50;99.90;;;;;;5053916;28;20102;-44
2022/08/01 03:23:56;;;;;;;6.65;1.88;;;18.50;99.90;;;;;;5033107;28;20041;-44
2022/08/01 03:26:25;;;;;;;5.60;1.80;;;18.50;99.90;;;;;;5052625;28;20133;-44
2022/08/01 03:28:52;;;;;;;4.82;1.88;;;18.50;99.90;;;;;;5070141;28;20124;-44
2022/08/01 03:31:20;;;;;;;6.40;1.50;;;18.50;99.90;;;;;;5067809;28;20132;-45
2022/08/01 03:33:46;;;;;;;10.40;2.70;;;18.50;99.90;;;;;;5053431;28;20084;-44
2022/08/01 03:36:13;;;;;;;8.23;2.20;;;18.50;99.90;;;;;;5045929;28;20131;-44
2022/08/01 03:38:40;;;;;;;6.50;2.38;;;18.40;99.90;;;;;;5040728;28;20123;-44
2022/08/01 03:41:09;;;;;;;8.63;1.98;;;18.40;99.90;;;;;;5059446;28;20473;-44
2022/08/01 03:43:40;;;;;;;7.00;1.90;;;18.40;99.90;;;;;;5071363;28;20128;-44
2022/08/01 03:46:08;;;;;;;8.63;2.13;;;18.40;99.90;;;;;;5053844;28;20451;-44
2022/08/01 03:48:38;;;;;;;10.30;2.35;;;18.40;99.90;;;;;;5072328;28;20048;-44
2022/08/01 03:51:05;;;;;;;4.55;2.05;;;18.40;99.90;;;;;;5066854;28;20118;-44
2022/08/01 03:53:32;;;;;;;8.02;2.17;;;18.40;99.90;;;;;;5070403;28;20511;-44
2022/08/01 03:55:59;;;;;;;5.90;1.88;;;18.40;99.90;;;;;;5069913;28;20123;-43
2022/08/01 03:58:26;;;;;;;9.13;1.90;;;18.40;99.90;;;;;;5069242;28;20048;-44
2022/08/01 04:00:53;;;;;;;6.85;2.20;;;18.40;99.90;;;;;;5064466;28;20075;-43
2022/08/01 04:03:19;;;;;;;5.60;1.40;;;18.40;99.90;;;;;;5063823;28;20075;-43
2022/08/01 04:05:47;;;;;;;8.00;1.85;;;18.40;99.90;;;;;;5065945;28;20045;-43
2022/08/01 04:08:14;;;;;;;8.70;2.25;;;18.40;99.90;;;;;;5060680;28;20119;-43
2022/08/01 04:10:41;;;;;;;10.35;1.92;;;18.40;99.90;;;;;;5051626;28;20133;-44
2022/08/01 04:13:08;;;;;;;6.40;1.70;;;18.40;99.90;;;;;;5060110;28;20084;-43
2022/08/01 04:15:35;;;;;;;8.38;2.30;;;18.40;99.90;;;;;;5057024;28;20036;-43
2022/08/01 04:18:01;;;;;;;11.20;2.40;;;18.40;99.90;;;;;;5067808;28;20123;-44
2022/08/01 04:20:28;;;;;;;6.88;2.38;;;18.40;99.90;;;;;;5043468;28;20048;-43
2022/08/01 04:22:56;;;;;;;9.95;2.53;;;18.40;99.90;;;;;;5044557;28;20124;-44
2022/08/01 04:25:26;;;;;;;6.43;1.90;;;18.40;99.90;;;;;;5052948;28;20124;-43
2022/08/01 04:27:54;;;;;;;9.18;2.03;;;18.40;99.90;;;;;;5050206;28;20051;-43
2022/08/01 04:30:24;;;;;;;12.48;2.83;;;18.40;99.90;;;;;;5051183;28;20048;-43
2022/08/01 04:32:51;;;;;;;6.47;2.03;;;18.40;99.90;;;;;;5050897;28;20395;-43
2022/08/01 04:35:17;;;;;;;8.13;2.20;;;18.40;99.90;;;;;;5051647;28;20559;-43
2022/08/01 04:37:45;;;;;;;12.90;3.58;;;18.30;99.90;;;;;;5055881;28;20075;-43
2022/08/01 04:40:13;;;;;;;12.07;3.15;;;18.30;99.90;;;;;;5067158;28;20072;-43
2022/08/01 04:42:40;;;;;;;17.35;3.20;;;18.30;99.90;;;;;;5045272;28;20084;-44
2022/08/01 04:45:09;;;;;;;12.18;3.22;;;18.30;99.90;;;;;;5049569;28;20053;-42
2022/08/01 04:47:36;;;;;;;9.60;2.90;;;18.30;99.90;;;;;;5060503;28;20484;-43
2022/08/01 04:50:06;;;;;;;9.43;2.55;;;18.20;99.90;;;;;;5070486;28;20498;-44
2022/08/01 04:52:34;;;;;;;13.45;3.13;;;18.20;99.90;;;;;;5069443;28;20557;-43
2022/08/01 04:55:01;;;;;;;6.68;2.30;;;18.30;99.90;;;;;;5060727;28;20063;-44
2022/08/01 04:57:30;;;;;;;13.77;3.03;;;18.30;99.90;;;;;;5072679;28;20056;-43
2022/08/01 04:59:57;;;;;;;11.13;3.13;;;18.20;99.90;;;;;;5067550;28;20041;-43
2022/08/01 05:02:27;;;;;;;8.93;2.70;;;18.20;99.90;;;;;;5057855;28;20040;-43
2022/08/01 05:04:54;;;;;;;15.15;3.10;;;18.20;99.90;;;;;;5051707;28;20431;-43
2022/08/01 05:07:21;;;;;;;15.98;3.28;;;18.20;99.90;;;;;;5036296;28;20676;-44
2022/08/01 05:09:48;;;;;;;18.10;3.63;;;18.20;99.90;;;;;;5046719;28;20140;-43
2022/08/01 05:12:15;;;;;;;14.40;3.63;;;18.20;99.90;;;;;;5053646;28;20109;-43
2022/08/01 05:14:43;;;;;;;11.60;2.67;;;18.10;99.90;;;;;;5052114;28;20472;-43
2022/08/01 05:17:10;;;;;;;12.68;3.20;;;18.10;99.90;;;;;;5049550;28;20049;-44
2022/08/01 05:19:38;;;;;;;11.80;2.95;;;18.20;99.90;;;;;;5060003;28;20044;-43
2022/08/01 05:22:05;;;;;;;15.32;4.05;;;18.10;99.90;;;;;;5051582;28;20064;-43
2022/08/01 05:24:32;;;;;;;14.88;3.63;;;18.10;99.90;;;;;;5052154;28;20049;-44
2022/08/01 05:26:59;;;;;;;15.25;3.67;;;18.10;99.90;;;;;;5068340;28;20732;-43
2022/08/01 05:29:26;;;;;;;12.85;3.03;;;18.10;99.90;;;;;;5049377;28;20135;-42
2022/08/01 05:31:54;;;;;;;13.20;3.40;;;18.10;99.90;;;;;;5056658;28;20087;-44
2022/08/01 05:34:21;;;;;;;9.07;3.05;;;18.10;99.90;;;;;;5060245;28;20049;-43
2022/08/01 05:36:48;;;;;;;13.80;3.30;;;18.10;99.90;;;;;;5053036;28;20057;-43
2022/08/01 05:39:15;;;;;;;16.15;3.45;;;18.10;99.90;;;;;;5049459;28;20128;-44
2022/08/01 05:41:42;;;;;;;10.20;3.03;;;18.10;99.90;;;;;;5045691;28;20041;-44
2022/08/01 05:44:09;;;;;;;11.30;3.15;;;18.10;99.90;;;;;;5051543;28;20164;-44
2022/08/01 05:46:35;;;;;;;11.73;3.80;;;18.10;99.90;;;;;;5048821;28;20140;-44
2022/08/01 05:49:04;;;;;;;16.05;3.42;;;18.20;99.90;;;;;;5054984;28;20044;-44
2022/08/01 05:51:31;;;;;;;15.52;3.28;;;18.10;99.90;;;;;;5056268;28;20083;-44
2022/08/01 05:53:58;;;;;;;15.95;3.80;;;18.20;99.90;;;;;;5042432;28;20156;-44
2022/08/01 05:56:25;;;;;;;12.75;3.13;;;18.20;99.90;;;;;;5051341;28;20045;-44
2022/08/01 05:58:51;;;;;;;14.02;2.75;;;18.10;99.90;;;;;;5054106;28;20113;-44
2022/08/01 06:01:18;;;;;;;14.95;3.70;;;18.20;99.90;;;;;;5052819;28;20080;-44
2022/08/01 06:03:45;;;;;;;14.50;3.45;;;18.20;99.90;;;;;;5059528;28;20065;-43
2022/08/01 06:06:14;;;;;;;11.63;2.88;;;18.20;99.90;;;;;;5050924;28;20048;-42
2022/08/01 06:08:41;;;;;;;20.23;3.88;;;18.30;99.90;;;;;;5052491;28;20045;-43
2022/08/01 06:11:07;;;;;;;9.48;3.22;;;18.30;99.90;;;;;;5053937;28;20048;-43
2022/08/01 06:13:34;;;;;;;21.30;3.60;;;18.30;99.90;;;;;;5056369;28;20128;-43
2022/08/01 06:16:01;;;;;;;15.93;3.20;;;18.30;99.90;;;;;;5057169;28;20125;-44
2022/08/01 06:18:27;;;;;;;21.15;4.53;;;18.30;99.90;;;;;;5052303;28;20045;-44
2022/08/01 06:20:54;;;;;;;13.32;2.88;;;18.30;99.90;;;;;;5051159;28;21197;-45
2022/08/01 06:23:22;;;;;;;23.02;3.67;;;18.30;99.90;;;;;;5052850;28;20083;-42
2022/08/01 06:25:49;;;;;;;21.02;3.42;;;18.20;99.90;;;;;;5057081;28;20037;-44
2022/08/01 06:28:16;;;;;;;24.25;3.97;;;18.20;99.90;;;;;;5069491;28;20131;-44
2022/08/01 06:30:43;;;;;;;17.05;3.78;;;18.20;99.90;;;;;;5069771;28;20144;-44
2022/08/01 06:33:10;;;;;;;19.80;3.38;;;18.20;99.90;;;;;;5055538;28;20041;-44
2022/08/01 06:35:36;;;;;;;21.02;4.13;;;18.20;99.90;;;;;;5051929;28;20045;-44
2022/08/01 06:38:03;;;;;;;14.68;3.13;;;18.10;99.90;;;;;;5054277;28;20445;-45
2022/08/01 06:40:31;;;;;;;15.15;3.50;;;18.10;99.90;;;;;;5050973;28;20120;-42
2022/08/01 06:42:58;;;;;;;21.60;4.30;;;18.10;99.90;;;;;;5049492;28;20045;-43
2022/08/01 06:45:25;;;;;;;24.58;3.95;;;18.10;99.90;;;;;;5052650;28;20045;-44
2022/08/01 06:47:52;;;;;;;22.58;3.85;;;18.10;99.90;;;;;;5036138;28;20100;-42
2022/08/01 06:50:19;;;;;;;22.98;3.92;;;18.00;99.90;;;;;;5053474;28;20088;-42
2022/08/01 06:52:46;;;;;;;20.73;3.60;;;18.00;99.90;;;;;;5053148;28;20080;-43
2022/08/01 06:55:12;;;;;;;21.75;3.78;;;18.00;99.90;;;;;;5054575;28;20120;-43
2022/08/01 06:57:47;;;;;;;21.98;3.90;;;18.10;99.90;;;;;;5056270;28;20047;-43
2022/08/01 07:00:16;;;;;;;21.50;3.45;;;18.10;99.90;;;;;;5069051;28;20044;-43
2022/08/01 07:02:43;;;;;;;21.55;4.05;;;18.10;99.90;;;;;;5053074;28;20072;-43
2022/08/01 07:05:10;;;;;;;21.20;4.88;;;18.10;99.90;;;;;;5054375;28;20045;-44
2022/08/01 07:07:37;;;;;;;23.33;3.85;;;18.10;99.90;;;;;;5053435;28;20427;-43
2022/08/01 07:10:04;;;;;;;20.38;3.78;;;18.10;99.90;;;;;;5054893;28;20049;-43
2022/08/01 07:12:30;;;;;;;20.33;3.53;;;18.20;99.90;;;;;;5058330;28;20525;-43
2022/08/01 07:14:58;;;;;;;20.58;4.43;;;18.20;99.90;;;;;;5054078;28;20135;-43
2022/08/01 07:17:25;;;;;;;24.45;4.65;;;18.20;99.90;;;;;;5053146;28;20455;-43
2022/08/01 07:19:54;;;;;;;16.63;3.15;;;18.20;99.90;;;;;;5052449;28;20059;-43
2022/08/01 07:22:21;;;;;;;19.10;3.80;;;18.20;99.90;;;;;;5033152;28;20053;-42
2022/08/01 07:24:47;;;;;;;23.42;3.83;;;18.20;99.90;;;;;;5045458;28;20135;-42
2022/08/01 07:27:14;;;;;;;21.90;3.58;;;18.30;99.90;;;;;;5053054;28;20124;-43
2022/08/01 07:29:41;;;;;;;17.40;3.40;;;18.20;99.90;;;;;;5053908;28;20451;-43
2022/08/01 07:32:09;;;;;;;26.92;4.57;;;18.30;99.90;;;;;;5071188;28;20128;-43
2022/08/01 07:34:36;;;;;;;17.08;3.42;;;18.30;99.90;;;;;;5072708;28;20091;-43
2022/08/01 07:37:03;;;;;;;17.50;3.67;;;18.40;99.90;;;;;;5055502;28;20081;-43
2022/08/01 07:39:29;;;;;;;17.63;3.40;;;18.30;99.90;;;;;;5061932;28;20131;-42
2022/08/01 07:41:57;;;;;;;14.93;3.55;;;18.40;99.90;;;;;;5073639;28;20127;-42
2022/08/01 07:44:24;;;;;;;21.55;3.88;;;18.40;99.90;;;;;;5071294;28;20048;-44
2022/08/01 07:46:51;;;;;;;17.73;3.35;;;18.50;99.90;;;;;;5064401;28;20056;-43
2022/08/01 07:49:19;;;;;;;16.15;3.60;;;18.60;99.90;;;;;;5071249;28;20447;-42
2022/08/01 07:51:45;;;;;;;20.40;3.58;;;18.60;99.90;;;;;;5073685;28;20424;-42
2022/08/01 07:54:12;;;;;;;30.92;3.63;;;18.70;99.90;;;;;;5072326;28;20365;-43
2022/08/01 07:56:39;;;;;;;27.65;3.60;;;18.70;99.90;;;;;;5061424;28;20504;-42
2022/08/01 07:59:06;;;;;;;20.00;3.47;;;18.70;99.90;;;;;;5051602;28;20448;-43
2022/08/01 08:01:32;;;;;;;24.60;4.00;;;18.70;99.90;;;;;;5050186;28;20444;-44
2022/08/01 08:03:59;;;;;;;21.98;3.28;;;18.70;99.90;;;;;;5052975;28;20052;-44
2022/08/01 08:06:27;;;;;;;19.50;3.33;;;18.80;99.90;;;;;;5060107;28;20040;-43
2022/08/01 08:08:54;;;;;;;19.10;3.63;;;18.80;99.90;;;;;;5073216;28;20123;-44
2022/08/01 08:11:21;;;;;;;15.05;3.08;;;18.90;99.90;;;;;;5068684;28;20120;-44
2022/08/01 08:13:47;;;;;;;19.38;3.15;;;18.90;99.90;;;;;;5067961;28;20072;-43
2022/08/01 08:16:15;;;;;;;19.02;3.70;;;19.00;99.90;;;;;;5060531;28;20123;-44
2022/08/01 08:18:41;;;;;;;18.30;3.15;;;19.00;99.90;;;;;;5052904;28;20445;-43
2022/08/01 08:21:08;;;;;;;18.45;3.55;;;19.10;99.90;;;;;;5053081;28;20140;-43
2022/08/01 08:26:20;;;;;;;20.73;3.72;;;19.20;99.90;;;;;;5070786;28;20133;-43
2022/08/01 08:28:47;;;;;;;18.45;3.33;;;19.20;99.90;;;;;;5072958;28;20131;-44
2022/08/01 08:31:14;;;;;;;19.42;3.33;;;19.20;99.90;;;;;;5055658;28;20094;-44
2022/08/01 08:33:40;;;;;;;16.02;2.90;;;19.20;99.90;;;;;;5068118;28;20115;-44
2022/08/01 08:36:08;;;;;;;17.85;3.30;;;19.30;99.90;;;;;;5071395;28;20536;-44
2022/08/01 08:38:36;;;;;;;21.15;3.60;;;19.30;99.90;;;;;;5070177;28;20111;-44
2022/08/01 08:41:02;;;;;;;16.58;3.60;;;19.50;99.90;;;;;;5068390;28;20140;-44
2022/08/01 08:43:29;;;;;;;19.98;3.65;;;19.60;99.90;;;;;;5032816;28;20443;-42
2022/08/01 08:45:56;;;;;;;24.77;3.00;;;19.70;99.90;;;;;;5049719;28;20435;-42
2022/08/01 08:48:23;;;;;;;26.70;3.63;;;19.90;99.90;;;;;;5051852;28;20132;-42
2022/08/01 08:50:50;;;;;;;25.95;3.97;;;20.10;99.90;;;;;;5052870;28;20095;-45
2022/08/01 08:53:16;;;;;;;20.08;3.33;;;20.20;99.90;;;;;;5052595;28;20083;-43
2022/08/01 08:55:44;;;;;;;16.45;2.63;;;20.30;99.90;;;;;;5051984;28;20388;-44
2022/08/01 08:58:13;;;;;;;19.33;3.00;;;20.50;99.90;;;;;;5052586;28;20084;-44
2022/08/01 09:00:39;;;;;;;18.48;2.50;;;20.80;99.90;;;;;;5052482;28;20137;-44
2022/08/01 09:03:06;;;;;;;14.48;2.75;;;21.00;99.80;;;;;;5069497;28;20483;-44
2022/08/01 09:05:33;;;;;;;11.90;2.17;;;21.10;99.50;;;;;;5073842;28;20049;-43
2022/08/01 09:08:00;;;;;;;15.15;2.90;;;21.30;99.30;;;;;;5076601;28;20062;-43
2022/08/01 09:10:27;;;;;;;10.93;2.20;;;21.40;98.70;;;;;;5071112;28;20124;-43
2022/08/01 09:13:06;;;;;;;10.55;1.92;;;21.60;98.60;;;;;;5054738;28;20049;-43
2022/08/01 09:15:40;;;;;;;12.52;2.25;;;21.80;98.20;;;;;;5055660;28;20089;-43
2022/08/01 09:18:07;;;;;;;18.90;2.80;;;21.90;98.30;;;;;;5055378;28;20063;-43
2022/08/01 09:20:35;;;;;;;14.10;2.50;;;22.00;97.50;;;;;;5056567;28;20131;-43
2022/08/01 09:23:02;;;;;;;13.23;2.17;;;22.00;97.30;;;;;;5055567;28;20051;-44
2022/08/01 09:25:33;;;;;;;18.35;2.92;;;22.00;97.20;;;;;;5056353;28;20052;-44
2022/08/01 09:28:05;;;;;;;18.80;3.00;;;22.00;97.20;;;;;;5056183;28;20111;-44
2022/08/01 09:30:38;;;;;;;14.27;2.08;;;22.00;97.20;;;;;;5055379;28;20048;-44
2022/08/01 09:33:05;;;;;;;11.15;2.00;;;22.20;96.20;;;;;;5055688;28;20095;-44
2022/08/01 09:35:34;;;;;;;14.02;2.28;;;22.30;96.10;;;;;;5056134;28;20128;-43
2022/08/01 09:38:13;;;;;;;16.45;2.83;;;22.50;95.80;;;;;;5055196;28;20136;-44
2022/08/01 09:40:46;;;;;;;13.05;2.38;;;22.60;95.60;;;;;;5056096;28;20052;-43
2022/08/01 09:43:14;;;;;;;10.07;2.00;;;22.70;95.80;;;;;;5056214;28;20073;-44
2022/08/01 09:45:40;;;;;;;10.23;2.25;;;22.70;95.20;;;;;;5054741;28;20573;-44
2022/08/01 09:48:08;;;;;;;9.45;2.00;;;22.80;95.10;;;;;;5068172;28;20048;-44
2022/08/01 09:50:40;;;;;;;12.35;2.50;;;22.90;95.00;;;;;;5063719;28;20053;-44
2022/08/01 09:53:07;;;;;;;13.85;2.80;;;23.00;94.20;;;;;;5054777;28;20052;-44
2022/08/01 09:55:34;;;;;;;14.98;2.47;;;23.00;94.50;;;;;;5055791;28;20127;-44
2022/08/01 09:58:01;;;;;;;11.15;2.35;;;23.10;93.90;;;;;;5072469;28;20140;-44
2022/08/01 10:00:29;;;;;;;12.10;1.95;;;23.20;93.40;;;;;;5075758;28;20048;-44
2022/08/01 10:02:56;;;;;;;10.32;2.13;;;23.20;92.70;;;;;;5075597;28;20048;-44
2022/08/01 10:05:31;;;;;;;13.23;2.08;;;23.20;92.50;;;;;;5059631;28;20140;-44
2022/08/01 10:07:58;;;;;;;12.98;2.03;;;23.30;92.90;;;;;;5054811;28;20049;-44
2022/08/01 10:10:25;;;;;;;9.85;1.75;;;23.50;92.50;;;;;;5054497;28;20131;-44
2022/08/01 10:12:53;;;;;;;10.43;2.20;;;23.70;92.10;;;;;;5054361;28;20463;-44
2022/08/01 10:15:21;;;;;;;12.85;2.00;;;23.80;91.40;;;;;;5069344;28;20055;-43
2022/08/01 10:17:53;;;;;;;10.77;2.03;;;23.90;91.30;;;;;;5074074;28;20047;-43
2022/08/01 10:20:20;;;;;;;8.05;1.90;;;24.00;91.30;;;;;;5074281;28;20139;-43
2022/08/01 10:22:46;;;;;;;8.75;1.60;;;24.10;91.50;;;;;;5074488;28;20134;-43
2022/08/01 10:25:16;;;;;;;8.80;1.90;;;24.20;91.50;;;;;;5075366;28;20048;-43
2022/08/01 10:27:45;;;;;;;12.38;2.20;;;24.30;90.90;;;;;;5073843;28;20170;-43
2022/08/01 10:30:12;;;;;;;12.02;1.85;;;24.40;90.20;;;;;;5053748;28;20091;-44
2022/08/01 10:32:39;;;;;;;8.63;2.22;;;24.40;89.10;;;;;;5054071;28;20086;-43
2022/08/01 10:35:08;;;;;;;13.52;2.65;;;24.30;89.20;;;;;;5061595;28;20097;-43
2022/08/01 10:37:35;;;;;;;12.70;2.00;;;24.20;88.20;;;;;;5074219;28;20041;-43
2022/08/01 10:40:03;;;;;;;8.98;2.05;;;24.20;89.50;;;;;;5071268;28;20051;-43
2022/08/01 10:42:29;;;;;;;16.90;2.03;;;24.30;90.10;;;;;;5072127;28;20499;-43
2022/08/01 10:44:56;;;;;;;9.45;2.05;;;24.40;88.50;;;;;;5044530;28;20136;-43
2022/08/01 10:47:27;;;;;;;9.27;1.80;;;24.40;88.70;;;;;;5045224;28;20467;-44
2022/08/01 10:49:57;;;;;;;11.13;1.75;;;24.40;87.70;;;;;;5050566;28;20041;-43
2022/08/01 10:52:25;;;;;;;11.85;2.22;;;24.40;85.90;;;;;;5051804;28;20127;-44
2022/08/01 10:55:02;;;;;;;6.95;1.73;;;24.40;86.60;;;;;;5055702;28;20123;-43
2022/08/01 10:57:42;;;;;;;7.60;1.70;;;24.50;87.30;;;;;;5054979;28;20132;-43
2022/08/01 11:00:10;;;;;;;9.00;1.92;;;24.70;88.30;;;;;;5054782;28;20184;-43
2022/08/01 11:02:40;;;;;;;8.68;1.70;;;24.80;85.60;;;;;;5051679;28;20059;-43
2022/08/01 11:05:10;;;;;;;9.85;1.80;;;24.90;85.60;;;;;;5040021;28;20037;-43
2022/08/01 11:07:45;;;;;;;12.93;1.70;;;25.10;84.50;;;;;;5052063;28;20128;-43
2022/08/01 11:10:20;;;;;;;7.18;1.80;;;25.20;85.40;;;;;;5049215;28;20091;-43
2022/08/01 11:12:46;;;;;;;6.70;1.38;;;25.20;84.50;;;;;;5071344;28;20520;-43
2022/08/01 11:15:27;;;;;;;7.78;1.80;;;25.20;84.70;;;;;;5049087;28;20072;-44
2022/08/01 11:17:54;;;;;;;6.32;1.58;;;25.20;84.00;;;;;;5036401;28;20473;-44
2022/08/01 11:20:22;;;;;;;7.22;1.70;;;25.30;84.20;;;;;;5044965;28;20049;-44
2022/08/01 11:23:32;;;;;;;10.27;1.73;;;25.40;83.70;;;;;;5045039;28;20164;-43
2022/08/01 11:26:10;;;;;;;7.80;1.95;;;25.50;83.50;;;;;;5043046;28;20443;-44
2022/08/01 11:28:37;;;;;;;8.77;1.90;;;25.60;83.90;;;;;;5048197;28;20045;-42
2022/08/01 11:31:25;;;;;;;6.35;1.50;;;25.60;80.90;;;;;;5061524;28;20044;-44
2022/08/01 11:33:52;;;;;;;7.85;1.75;;;25.50;82.90;;;;;;5036824;28;20045;-43
2022/08/01 11:36:20;;;;;;;10.57;1.85;;;25.50;82.60;;;;;;5041187;28;20128;-44
2022/08/01 11:38:47;;;;;;;10.43;1.48;;;25.50;80.00;;;;;;5055325;28;20381;-43
2022/08/01 11:41:17;;;;;;;5.05;1.35;;;25.40;79.40;;;;;;5064176;28;20499;-43
2022/08/01 11:43:55;;;;;;;5.43;1.33;;;25.40;80.50;;;;;;5053032;28;20392;-44
2022/08/01 11:46:45;;;;;;;9.23;1.50;;;25.50;80.30;;;;;;5052150;28;20400;-44
2022/08/01 11:49:29;;;;;;;6.18;1.60;;;25.60;80.20;;;;;;5051795;28;20455;-43
2022/08/01 11:52:00;;;;;;;8.45;1.70;;;25.70;80.90;;;;;;5054924;28;20052;-43
2022/08/01 11:54:28;;;;;;;8.32;1.85;;;25.70;81.20;;;;;;5040188;28;20055;-43
2022/08/01 11:56:58;;;;;;;7.72;1.30;;;25.70;79.20;;;;;;5050644;28;20936;-43
2022/08/01 11:59:24;;;;;;;6.03;1.58;;;25.70;79.00;;;;;;5039080;28;20052;-43
2022/08/01 12:01:51;;;;;;;9.38;1.90;;;25.70;80.50;;;;;;5046678;28;20076;-43
2022/08/01 12:04:18;;;;;;;11.20;1.88;;;25.60;80.50;;;;;;5042794;28;20091;-44
2022/08/01 12:06:45;;;;;;;12.32;2.50;;;25.60;78.10;;;;;;5047285;28;20132;-44
2022/08/01 12:09:21;;;;;;;4.97;1.75;;;25.60;77.70;;;;;;5050938;28;20098;-45
2022/08/01 12:11:48;;;;;;;9.82;1.77;;;25.60;79.20;;;;;;5052574;28;20485;-44
2022/08/01 12:14:22;;;;;;;6.00;1.38;;;25.60;77.60;;;;;;5051043;28;20131;-43
2022/08/01 12:16:51;;;;;;;7.45;1.50;;;25.50;77.60;;;;;;5051372;28;20119;-43
2022/08/01 12:19:22;;;;;;;10.75;1.98;;;25.50;78.10;;;;;;5049541;28;20337;-43
2022/08/01 12:22:08;;;;;;;10.32;1.73;;;25.50;76.90;;;;;;5049049;28;20388;-44
2022/08/01 12:24:35;;;;;;;8.52;2.00;;;25.60;78.40;;;;;;5045940;28;20095;-43
2022/08/01 12:27:01;;;;;;;9.00;1.58;;;25.60;79.00;;;;;;5049118;28;20121;-44
2022/08/01 12:29:37;;;;;;;7.45;1.70;;;25.70;78.50;;;;;;5045349;28;20049;-44
2022/08/01 12:32:04;;;;;;;8.75;1.85;;;25.70;77.50;;;;;;5033088;28;20088;-44
2022/08/01 12:34:33;;;;;;;4.38;1.30;;;25.80;76.90;;;;;;5031756;28;20047;-44
2022/08/01 12:37:01;;;;;;;6.68;1.58;;;25.90;77.30;;;;;;5032628;28;20046;-44
2022/08/01 12:39:35;;;;;;;6.05;1.73;;;26.00;75.20;;;;;;5072720;28;20087;-44
2022/08/01 12:42:02;;;;;;;6.25;1.60;;;26.10;74.60;;;;;;5071701;28;20127;-43
2022/08/01 12:44:29;;;;;;;11.68;1.95;;;26.00;74.80;;;;;;5070207;28;20076;-44
2022/08/01 12:46:57;;;;;;;9.90;1.58;;;25.90;74.50;;;;;;5052803;28;20131;-44
2022/08/01 12:49:24;;;;;;;10.30;1.70;;;25.80;75.00;;;;;;5052702;28;20431;-45